This demonstration page uses our WeatherBlox Daily Observations layout. Learn more.

39.29038, -76.61219

Hourly Observations for June 26, 2019

Temp ( °F °C ) Dew Point ( °F °C ) Humidity (%) Winds ( mph kmh ) Pressure ( in mb ) Visibility ( mi km ) Precip ( " mm )
12:54 am 00:54 undefined 78 25.6 61 16.1 56 56 undefined N/A 29.97 1015 N/A 0 0
1:54 am 01:54 undefined 77 25 60 15.6 56 56 undefined N/A 29.97 1015 N/A 0 0
2:54 am 02:54 undefined 76 24.4 60 15.6 58 58 undefined N/A 29.97 1015 N/A 0 0
3:54 am 03:54 undefined 74 23.3 60 15.6 62 62 undefined N/A 30 1016 N/A 0 0
4:54 am 04:54 undefined 73 22.8 60 15.6 64 64 undefined N/A 30 1016 N/A 0 0
5:54 am 05:54 undefined 73 22.8 60 15.6 64 64 undefined N/A 30.03 1017 N/A 0 0
6:54 am 06:54 undefined 74 23.3 61 16.1 64 64 undefined N/A 30.06 1018 N/A 0 0
7:54 am 07:54 undefined 78 25.6 62 16.7 58 58 undefined N/A 30.06 1018 N/A 0 0
8:54 am 08:54 undefined 82 27.8 63 17.2 53 53 undefined N/A 30.06 1018 N/A 0 0
9:54 am 09:54 undefined 84 28.9 61 16.1 46 46 undefined N/A 30.06 1018 N/A 0 0
10:54 am 10:54 undefined 86 30 62 16.7 45 45 undefined N/A 30.06 1018 N/A 0 0
11:54 am 11:54 undefined 88 31.1 61 16.1 40 40 undefined N/A 30.06 1018 N/A 0 0
12:54 pm 12:54 undefined 87 30.6 62 16.7 43 43 undefined N/A 30.03 1017 N/A 0 0
1:54 pm 13:54 undefined 89 31.7 62 16.7 41 41 undefined N/A 30.03 1017 N/A 0 0
2:54 pm 14:54 undefined 90 32.2 61 16.1 38 38 undefined N/A 30.03 1017 N/A 0 0
3:54 pm 15:54 undefined 92 33.3 63 17.2 38 38 undefined N/A 30.03 1017 N/A 0 0
4:54 pm 16:54 undefined 90 32.2 61 16.1 38 38 undefined N/A 30 1016 N/A 0 0
5:54 pm 17:54 undefined 90 32.2 61 16.1 38 38 undefined N/A 30 1016 N/A 0 0
6:54 pm 18:54 undefined 90 32.2 61 16.1 38 38 undefined N/A 30 1016 N/A 0 0
7:54 pm 19:54 undefined 88 31.1 61 16.1 40 40 undefined N/A 30.03 1017 N/A 0 0
8:54 pm 20:54 undefined 87 30.6 61 16.1 42 42 undefined N/A 30.03 1017 N/A 0 0
9:54 pm 21:54 undefined 85 29.4 63 17.2 48 48 undefined N/A 30.03 1017 N/A 0 0
10:54 pm 22:54 undefined 84 28.9 63 17.2 49 49 undefined N/A 30.06 1018 N/A 0 0
11:54 pm 23:54 undefined 82 27.8 63 17.2 53 53 undefined N/A 30.06 1018 N/A 0 0

Powered by AerisWeather